createdAt,value
2018-09-23T00:00:38.253Z,101225.09
2018-09-23T00:05:30.855Z,101217.55
2018-09-23T00:10:23.455Z,101220.59
2018-09-23T00:15:16.057Z,101225.38
2018-09-23T00:20:08.778Z,101223.91
2018-09-23T00:25:01.511Z,101218.52
2018-09-23T00:29:54.092Z,101209.52
2018-09-23T00:34:46.713Z,101207.73
2018-09-23T00:39:39.322Z,101198.14
2018-09-23T00:44:31.926Z,101202.63
2018-09-23T00:49:24.531Z,101206.55
2018-09-23T00:54:17.086Z,101211.66
2018-09-23T00:59:09.669Z,101194.19
2018-09-23T01:04:02.280Z,101189.02
2018-09-23T01:08:54.834Z,101190.20
2018-09-23T01:13:47.507Z,101190.38
2018-09-23T01:18:40.239Z,101173.89
2018-09-23T01:23:32.828Z,101174.11
2018-09-23T01:28:25.516Z,101172.86
2018-09-23T01:33:18.071Z,101179.89
2018-09-23T01:38:10.882Z,101171.37
2018-09-23T01:43:03.496Z,101172.11
2018-09-23T01:47:56.134Z,101163.72
2018-09-23T01:52:48.746Z,101170.68
2018-09-23T01:57:41.327Z,101162.68
2018-09-23T02:02:33.969Z,101167.77
2018-09-23T02:07:26.547Z,101166.13
2018-09-23T02:12:19.113Z,101154.38
2018-09-23T02:22:15.974Z,101149.75
2018-09-23T02:27:08.653Z,101149.70
2018-09-23T02:32:01.252Z,101140.02
2018-09-23T02:36:53.856Z,101136.14
2018-09-23T02:41:46.442Z,101141.80
2018-09-23T02:46:39.027Z,101138.66
2018-09-23T02:51:31.650Z,101123.41
2018-09-23T02:56:24.277Z,101134.01
2018-09-23T03:01:16.846Z,101124.19
2018-09-23T03:06:09.407Z,101123.89
2018-09-23T03:11:01.971Z,101125.92
2018-09-23T03:15:54.519Z,101108.76
2018-09-23T03:20:47.090Z,101114.31
2018-09-23T03:25:39.704Z,101112.44
2018-09-23T03:30:32.291Z,101116.91
2018-09-23T03:35:24.911Z,101129.47
2018-09-23T03:40:17.483Z,101118.33
2018-09-23T03:45:10.143Z,101108.20
2018-09-23T03:50:02.963Z,101104.91
2018-09-23T03:54:55.511Z,101117.20
2018-09-23T03:59:48.034Z,101104.87
2018-09-23T04:04:40.591Z,101093.58
2018-09-23T04:09:33.219Z,101098.35
2018-09-23T04:14:25.823Z,101098.96
2018-09-23T04:19:18.504Z,101101.70
2018-09-23T04:24:11.220Z,101098.49
2018-09-23T04:29:03.782Z,101092.89
2018-09-23T04:33:56.379Z,101095.89
2018-09-23T04:38:48.975Z,101098.88
2018-09-23T04:43:41.568Z,101085.28
2018-09-23T04:48:34.256Z,101092.90
2018-09-23T04:53:26.843Z,101093.28
2018-09-23T04:58:19.514Z,101087.08
2018-09-23T05:03:12.095Z,101079.52
2018-09-23T05:08:05.060Z,101079.73
2018-09-23T05:12:57.786Z,101073.52
2018-09-23T05:17:50.600Z,101070.61
2018-09-23T05:22:43.192Z,101065.30
2018-09-23T05:27:35.761Z,101052.88
2018-09-23T05:32:28.760Z,101042.23
2018-09-23T05:37:21.462Z,101051.53
2018-09-23T05:42:14.046Z,101058.27
2018-09-23T05:47:07.017Z,101046.00
2018-09-23T05:51:59.599Z,101031.70
2018-09-23T05:56:52.343Z,101041.14
2018-09-23T06:01:44.858Z,101046.61
2018-09-23T06:06:37.607Z,101032.66
2018-09-23T06:11:30.184Z,101039.64
2018-09-23T06:16:22.811Z,101041.64
2018-09-23T06:21:15.483Z,101034.02
2018-09-23T06:26:08.094Z,101051.36
2018-09-23T06:31:00.756Z,101035.27
2018-09-23T06:35:53.327Z,101024.27
2018-09-23T06:40:46.146Z,101047.48
2018-09-23T06:45:38.764Z,101061.86
2018-09-23T06:50:31.332Z,101053.82
2018-09-23T06:55:23.995Z,101042.89
2018-09-23T07:00:16.528Z,101040.30
2018-09-23T07:05:09.320Z,101061.70
2018-09-23T07:10:01.868Z,101049.12
2018-09-23T07:14:54.494Z,101045.57
2018-09-23T07:19:47.136Z,101045.46
2018-09-23T07:24:39.713Z,101049.14
2018-09-23T07:29:32.444Z,101056.28
2018-09-23T07:34:25.099Z,101031.78
2018-09-23T07:39:17.740Z,101043.63
2018-09-23T07:44:10.332Z,101052.75
2018-09-23T07:49:02.935Z,101057.14
2018-09-23T07:53:55.815Z,101055.77
2018-09-23T07:58:48.552Z,101035.02
2018-09-23T08:03:41.232Z,101040.22
2018-09-23T08:08:34.166Z,101032.13
2018-09-23T08:13:26.964Z,101020.16
2018-09-23T08:18:19.791Z,101011.09
2018-09-23T08:23:12.528Z,100999.34
2018-09-23T08:28:05.111Z,101005.92
2018-09-23T08:32:57.682Z,101002.47
2018-09-23T08:37:50.247Z,100993.53
2018-09-23T08:42:42.920Z,100989.80
2018-09-23T08:47:35.578Z,100997.36
2018-09-23T08:52:28.171Z,100981.85
2018-09-23T08:57:20.768Z,100973.11
2018-09-23T09:02:13.347Z,100982.87
2018-09-23T09:07:06.137Z,100971.70
2018-09-23T09:11:58.783Z,100969.71
2018-09-23T09:16:51.400Z,100949.59
2018-09-23T09:21:44.124Z,100952.77
2018-09-23T09:26:36.860Z,100952.64
2018-09-23T09:31:29.473Z,100950.17
2018-09-23T09:36:22.080Z,100938.89
2018-09-23T09:41:14.726Z,100938.65
2018-09-23T09:46:07.368Z,100940.00
2018-09-23T09:51:00.043Z,100942.64
2018-09-23T09:55:52.664Z,100946.87
2018-09-23T10:00:45.252Z,100942.03
2018-09-23T10:05:37.809Z,100933.79
2018-09-23T10:10:30.655Z,100907.94
2018-09-23T10:15:23.182Z,100885.14
2018-09-23T10:20:15.790Z,100874.91
2018-09-23T10:25:08.564Z,100870.41
2018-09-23T10:30:01.222Z,100872.95
2018-09-23T10:34:54.464Z,100858.07
2018-09-23T10:39:47.340Z,100867.31
2018-09-23T10:44:39.939Z,100844.80
2018-09-23T10:49:32.524Z,100797.66
2018-09-23T10:54:25.097Z,100800.11
2018-09-23T10:59:17.708Z,100808.53
2018-09-23T11:04:10.525Z,100816.02
2018-09-23T11:09:04.059Z,100799.41
2018-09-23T11:13:56.719Z,100795.38
2018-09-23T11:18:49.266Z,100787.53
2018-09-23T11:23:42.077Z,100767.67
2018-09-23T11:28:34.694Z,100754.12
2018-09-23T11:33:27.329Z,100727.88
2018-09-23T11:38:20.242Z,100731.44
2018-09-23T11:43:12.860Z,100715.45
2018-09-23T11:48:05.591Z,100722.23
2018-09-23T11:52:58.255Z,100723.59
2018-09-23T11:57:50.814Z,100703.52
2018-09-23T12:02:43.588Z,100694.03
2018-09-23T12:07:36.123Z,100683.16
2018-09-23T12:12:28.833Z,100679.54
2018-09-23T12:17:21.431Z,100669.46
2018-09-23T12:22:14.110Z,100630.42
2018-09-23T12:27:06.682Z,100622.53
2018-09-23T12:31:59.278Z,100625.48
2018-09-23T12:36:51.895Z,100633.33
2018-09-23T12:41:44.514Z,100653.11
2018-09-23T12:46:37.193Z,100648.48
2018-09-23T12:51:29.867Z,100641.17
2018-09-23T12:56:22.457Z,100627.63
2018-09-23T13:01:14.957Z,100612.48
2018-09-23T13:06:07.522Z,100603.79
2018-09-23T13:11:00.090Z,100593.75
2018-09-23T13:15:52.642Z,100591.27
2018-09-23T13:20:45.407Z,100594.45
2018-09-23T13:25:37.991Z,100586.83
2018-09-23T13:30:30.735Z,100575.15
2018-09-23T13:35:23.302Z,100570.27
2018-09-23T13:40:16.039Z,100548.58
2018-09-23T13:45:08.811Z,100530.41
2018-09-23T13:50:01.363Z,100488.42
2018-09-23T13:54:53.955Z,100498.40
2018-09-23T13:59:46.604Z,100493.75
2018-09-23T14:04:39.267Z,100455.57
2018-09-23T14:09:31.836Z,100378.35
2018-09-23T14:14:24.479Z,100378.05
2018-09-23T14:19:17.258Z,100327.67
2018-09-23T14:24:10.143Z,100314.38
2018-09-23T14:29:02.778Z,100271.60
2018-09-23T14:33:55.346Z,100309.70
2018-09-23T14:38:47.956Z,100362.41
2018-09-23T14:43:40.643Z,100385.87
2018-09-23T14:48:33.276Z,100365.28
2018-09-23T14:53:25.815Z,100366.06
2018-09-23T14:58:18.406Z,100328.99
2018-09-23T15:03:11.018Z,100355.72
2018-09-23T15:08:03.620Z,100357.58
2018-09-23T15:12:56.258Z,100337.02
2018-09-23T15:17:49.028Z,100346.17
2018-09-23T15:22:41.727Z,100368.02
2018-09-23T15:27:34.584Z,100321.47
2018-09-23T15:32:27.207Z,100303.90
2018-09-23T15:37:20.078Z,100305.97
2018-09-23T15:42:12.759Z,100291.58
2018-09-23T15:47:05.756Z,100322.09
2018-09-23T15:51:58.440Z,100276.12
2018-09-23T15:56:51.206Z,100278.01
2018-09-23T16:01:43.789Z,100259.53
2018-09-23T16:06:36.470Z,100249.52
2018-09-23T16:11:29.176Z,100266.50
2018-09-23T16:16:21.751Z,100270.27
2018-09-23T16:21:14.400Z,100257.30
2018-09-23T16:26:07.015Z,100252.94
2018-09-23T16:30:59.698Z,100250.77
2018-09-23T16:35:52.316Z,100225.58
2018-09-23T16:40:44.883Z,100235.88
2018-09-23T16:45:37.503Z,100141.57
2018-09-23T16:50:30.232Z,100117.77
2018-09-23T16:55:22.879Z,100129.61
2018-09-23T17:00:15.449Z,100123.09
2018-09-23T17:05:07.961Z,100161.92
2018-09-23T17:10:00.549Z,100204.84
2018-09-23T17:14:54.242Z,100215.60
2018-09-23T17:19:46.806Z,100190.98
2018-09-23T17:24:40.393Z,100207.40
2018-09-23T17:29:32.908Z,100261.38
2018-09-23T17:34:25.527Z,100379.30
2018-09-23T17:39:18.162Z,100112.86
2018-09-23T17:44:10.743Z,100226.14
2018-09-23T17:49:03.513Z,100324.65
2018-09-23T17:53:56.063Z,100310.33
2018-09-23T17:58:48.631Z,100372.11
2018-09-23T18:03:41.219Z,100378.86
2018-09-23T18:08:33.762Z,100297.08
2018-09-23T18:13:26.417Z,100237.67
2018-09-23T18:18:18.933Z,100301.58
2018-09-23T18:23:11.569Z,100385.17
2018-09-23T18:28:04.268Z,100463.56
2018-09-23T18:32:56.834Z,100505.55
2018-09-23T18:37:49.367Z,100497.09
2018-09-23T18:42:42.078Z,100494.05
2018-09-23T18:47:34.735Z,100483.16
2018-09-23T18:52:27.363Z,100446.92
2018-09-23T18:57:20.002Z,100441.42
2018-09-23T19:02:12.786Z,100426.05
2018-09-23T19:07:05.501Z,100416.03
2018-09-23T19:11:58.129Z,100395.22
2018-09-23T19:16:50.703Z,100420.79
2018-09-23T19:21:43.344Z,100447.70
2018-09-23T19:26:36.043Z,100476.72
2018-09-23T19:31:28.663Z,100526.83
2018-09-23T19:36:21.254Z,100532.22
2018-09-23T19:41:15.012Z,100532.14
2018-09-23T19:46:08.078Z,100540.45
2018-09-23T19:51:00.602Z,100538.00
2018-09-23T19:55:53.519Z,100554.64
2018-09-23T20:00:46.101Z,100571.80
2018-09-23T20:05:38.748Z,100582.87
2018-09-23T20:10:31.308Z,100578.60
2018-09-23T20:15:23.912Z,100578.81
2018-09-23T20:20:16.516Z,100598.73
2018-09-23T20:25:09.343Z,100613.26
2018-09-23T20:30:01.966Z,100617.30
2018-09-23T20:34:54.535Z,100624.04
2018-09-23T20:39:47.533Z,100640.44
2018-09-23T20:44:40.246Z,100653.55
2018-09-23T20:49:32.894Z,100671.08
2018-09-23T20:54:25.489Z,100686.91
2018-09-23T20:59:18.241Z,100687.01
2018-09-23T21:04:10.849Z,100694.39
2018-09-23T21:09:05.857Z,100704.52
2018-09-23T21:13:58.454Z,100709.27
2018-09-23T21:18:51.127Z,100719.97
2018-09-23T21:23:43.836Z,100730.97
2018-09-23T21:28:36.630Z,100737.86
2018-09-23T21:33:29.460Z,100732.06
2018-09-23T21:38:22.243Z,100754.96
2018-09-23T21:43:15.031Z,100763.04
2018-09-23T21:48:07.796Z,100778.30
2018-09-23T21:53:00.393Z,100781.59
2018-09-23T21:57:53.053Z,100785.78
2018-09-23T22:02:45.697Z,100802.77
2018-09-23T22:07:38.292Z,100809.30
2018-09-23T22:12:30.977Z,100816.78
2018-09-23T22:17:23.567Z,100825.91
2018-09-23T22:22:16.275Z,100830.25
2018-09-23T22:27:08.879Z,100836.98
2018-09-23T22:32:01.515Z,100850.44
2018-09-23T22:36:54.264Z,100852.83
2018-09-23T22:41:46.846Z,100863.03
2018-09-23T22:46:39.430Z,100871.86
2018-09-23T22:51:32.065Z,100874.69
2018-09-23T22:56:24.664Z,100884.55
2018-09-23T23:01:17.396Z,100889.89
2018-09-23T23:06:09.974Z,100900.88
2018-09-23T23:11:02.624Z,100913.12
2018-09-23T23:15:55.262Z,100928.10
2018-09-23T23:20:47.848Z,100932.94
2018-09-23T23:25:40.456Z,100945.43
2018-09-23T23:30:33.066Z,100950.73
2018-09-23T23:35:25.648Z,100960.36
2018-09-23T23:40:18.228Z,100975.39
2018-09-23T23:45:10.796Z,100985.48
2018-09-23T23:50:03.445Z,100992.28
2018-09-23T23:54:56.061Z,101005.77
2018-09-23T23:59:48.716Z,101024.58
